createdAt,value
2019-06-15T00:00:14.653Z,0.00
2019-06-15T00:01:14.658Z,0.00
2019-06-15T00:02:14.660Z,0.00
2019-06-15T00:03:14.625Z,0.00
2019-06-15T00:04:19.627Z,0.00
2019-06-15T00:05:14.594Z,0.00
2019-06-15T00:06:14.595Z,0.00
2019-06-15T00:07:14.577Z,0.00
2019-06-15T00:08:14.568Z,0.00
2019-06-15T00:09:14.559Z,0.00
2019-06-15T00:10:14.556Z,0.00
2019-06-15T00:11:14.549Z,0.00
2019-06-15T00:12:14.555Z,0.00
2019-06-15T00:13:14.524Z,0.00
2019-06-15T00:14:14.505Z,0.00
2019-06-15T00:15:19.546Z,0.00
2019-06-15T00:16:14.470Z,0.00
2019-06-15T00:17:14.479Z,0.00
2019-06-15T00:18:14.449Z,0.00
2019-06-15T00:19:14.444Z,0.00
2019-06-15T00:20:14.434Z,0.00
2019-06-15T00:21:14.428Z,0.00
2019-06-15T00:22:14.420Z,0.00
2019-06-15T00:23:14.404Z,0.00
2019-06-15T00:24:14.384Z,0.00
2019-06-15T00:25:14.406Z,0.00
2019-06-15T00:26:19.396Z,0.00
2019-06-15T00:27:14.350Z,0.00
2019-06-15T00:28:14.338Z,0.00
2019-06-15T00:29:14.342Z,0.00
2019-06-15T00:30:14.340Z,0.00
2019-06-15T00:31:14.354Z,0.00
2019-06-15T00:32:14.294Z,0.00
2019-06-15T00:33:14.275Z,0.00
2019-06-15T00:34:14.292Z,0.00
2019-06-15T00:35:14.275Z,0.00
2019-06-15T00:36:14.250Z,0.00
2019-06-15T00:37:19.320Z,0.00
2019-06-15T00:38:14.252Z,0.00
2019-06-15T00:39:14.212Z,0.00
2019-06-15T00:40:14.210Z,0.00
2019-06-15T00:41:14.209Z,0.00
2019-06-15T00:42:14.255Z,0.00
2019-06-15T00:43:14.174Z,0.00
2019-06-15T00:44:14.156Z,0.00
2019-06-15T00:45:14.159Z,0.00
2019-06-15T00:46:14.143Z,0.00
2019-06-15T00:47:14.123Z,0.00
2019-06-15T00:48:19.212Z,0.00
2019-06-15T00:49:14.120Z,0.00
2019-06-15T00:50:14.102Z,0.00
2019-06-15T00:51:14.089Z,0.00
2019-06-15T00:52:14.096Z,0.00
2019-06-15T00:53:14.099Z,0.00
2019-06-15T00:54:14.070Z,0.00
2019-06-15T00:55:14.038Z,0.00
2019-06-15T00:56:14.045Z,0.00
2019-06-15T00:57:14.053Z,0.00
2019-06-15T00:58:14.018Z,0.00
2019-06-15T00:59:19.064Z,0.00
2019-06-15T01:00:14.022Z,0.00
2019-06-15T01:01:13.977Z,0.00
2019-06-15T01:02:13.975Z,0.00
2019-06-15T01:03:13.964Z,0.00
2019-06-15T01:04:13.939Z,0.00
2019-06-15T01:05:13.941Z,0.00
2019-06-15T01:06:13.912Z,0.00
2019-06-15T01:07:13.948Z,0.00
2019-06-15T01:08:13.898Z,0.00
2019-06-15T01:09:13.907Z,0.00
2019-06-15T01:10:18.897Z,0.00
2019-06-15T01:11:13.883Z,0.00
2019-06-15T01:12:13.853Z,0.00
2019-06-15T01:13:13.842Z,0.00
2019-06-15T01:14:13.847Z,0.00
2019-06-15T01:15:13.834Z,0.00
2019-06-15T01:16:13.806Z,0.00
2019-06-15T01:17:13.813Z,0.00
2019-06-15T01:18:13.909Z,0.00
2019-06-15T01:19:13.804Z,0.00
2019-06-15T01:20:13.781Z,0.00
2019-06-15T01:21:18.793Z,0.00
2019-06-15T01:22:13.746Z,0.00
2019-06-15T01:23:13.757Z,0.00
2019-06-15T01:24:13.715Z,0.00
2019-06-15T01:25:13.706Z,0.00
2019-06-15T01:26:13.703Z,0.00
2019-06-15T01:27:13.709Z,0.00
2019-06-15T01:28:13.752Z,0.00
2019-06-15T01:29:13.688Z,0.00
2019-06-15T01:30:13.659Z,0.00
2019-06-15T01:31:13.642Z,0.00
2019-06-15T01:32:18.668Z,0.00
2019-06-15T01:33:13.634Z,0.00
2019-06-15T01:34:13.623Z,0.00
2019-06-15T01:35:13.609Z,0.00
2019-06-15T01:36:13.590Z,0.00
2019-06-15T01:37:13.588Z,0.00
2019-06-15T01:38:13.591Z,0.00
2019-06-15T01:39:13.573Z,0.00
2019-06-15T01:40:13.544Z,0.00
2019-06-15T01:41:13.555Z,0.00
2019-06-15T01:42:13.527Z,0.00
2019-06-15T01:43:18.585Z,0.00
2019-06-15T01:44:13.509Z,0.00
2019-06-15T01:45:13.500Z,0.00
2019-06-15T01:46:13.485Z,0.00
2019-06-15T01:47:13.490Z,0.00
2019-06-15T01:48:13.469Z,0.00
2019-06-15T01:49:13.464Z,0.00
2019-06-15T01:50:13.441Z,0.00
2019-06-15T01:51:13.440Z,0.00
2019-06-15T01:52:13.408Z,0.00
2019-06-15T01:53:13.409Z,0.00
2019-06-15T01:54:18.416Z,0.00
2019-06-15T01:55:20.983Z,0.00
2019-06-15T01:56:14.380Z,0.00
2019-06-15T01:57:13.356Z,0.00
2019-06-15T01:58:13.349Z,0.00
2019-06-15T01:59:13.339Z,0.00
2019-06-15T02:00:13.341Z,0.00
2019-06-15T02:01:13.319Z,0.00
2019-06-15T02:02:13.322Z,0.00
2019-06-15T02:03:13.297Z,0.00
2019-06-15T02:04:13.298Z,0.00
2019-06-15T02:05:18.289Z,0.00
2019-06-15T02:06:13.269Z,0.00
2019-06-15T02:07:13.312Z,0.00
2019-06-15T02:08:13.255Z,0.00
2019-06-15T02:09:13.228Z,0.00
2019-06-15T02:10:13.229Z,0.00
2019-06-15T02:11:13.204Z,0.00
2019-06-15T02:12:13.209Z,0.00
2019-06-15T02:13:13.195Z,0.00
2019-06-15T02:14:13.180Z,0.00
2019-06-15T02:15:13.162Z,0.00
2019-06-15T02:16:18.189Z,0.00
2019-06-15T02:17:13.145Z,0.00
2019-06-15T02:18:13.126Z,0.00
2019-06-15T02:19:13.114Z,0.00
2019-06-15T02:20:13.101Z,0.00
2019-06-15T02:21:13.095Z,0.00
2019-06-15T02:22:13.086Z,0.00
2019-06-15T02:23:13.088Z,0.00
2019-06-15T02:24:13.062Z,0.00
2019-06-15T02:25:13.049Z,0.00
2019-06-15T02:26:13.037Z,0.00
2019-06-15T02:27:18.050Z,0.00
2019-06-15T02:28:13.013Z,0.00
2019-06-15T02:29:13.024Z,0.00
2019-06-15T02:30:13.008Z,0.00
2019-06-15T02:31:12.978Z,0.00
2019-06-15T02:32:12.971Z,0.00
2019-06-15T02:33:12.969Z,0.00
2019-06-15T02:34:12.957Z,0.00
2019-06-15T02:35:12.959Z,0.00
2019-06-15T02:36:12.925Z,0.00
2019-06-15T02:37:12.914Z,0.00
2019-06-15T02:38:17.927Z,0.00
2019-06-15T02:39:12.902Z,0.00
2019-06-15T02:40:12.895Z,0.00
2019-06-15T02:41:12.871Z,0.00
2019-06-15T02:42:12.858Z,0.00
2019-06-15T02:43:12.845Z,0.00
2019-06-15T02:44:12.841Z,0.00
2019-06-15T02:45:12.844Z,0.00
2019-06-15T02:46:12.823Z,0.00
2019-06-15T02:47:12.806Z,0.00
2019-06-15T02:48:12.800Z,0.00
2019-06-15T02:49:17.808Z,0.00
2019-06-15T02:50:12.780Z,0.00
2019-06-15T02:51:12.785Z,0.00
2019-06-15T02:52:12.761Z,0.00
2019-06-15T02:53:12.741Z,4.00
2019-06-15T02:54:12.728Z,4.00
2019-06-15T02:55:12.724Z,4.00
2019-06-15T02:56:12.709Z,0.00
2019-06-15T02:57:12.696Z,4.00
2019-06-15T02:58:12.699Z,4.00
2019-06-15T02:59:12.675Z,4.00
2019-06-15T03:00:17.696Z,4.00
2019-06-15T03:01:12.662Z,8.00
2019-06-15T03:02:12.653Z,8.00
2019-06-15T03:03:12.640Z,8.00
2019-06-15T03:04:12.619Z,8.00
2019-06-15T03:05:12.617Z,12.00
2019-06-15T03:06:12.599Z,12.00
2019-06-15T03:07:12.585Z,12.00
2019-06-15T03:08:12.593Z,16.00
2019-06-15T03:09:12.570Z,16.00
2019-06-15T03:10:12.552Z,16.00
2019-06-15T03:11:17.563Z,20.00
2019-06-15T03:12:12.539Z,20.00
2019-06-15T03:13:12.538Z,24.00
2019-06-15T03:14:12.535Z,24.00
2019-06-15T03:15:12.510Z,24.00
2019-06-15T03:16:12.535Z,28.00
2019-06-15T03:17:12.479Z,32.00
2019-06-15T03:18:12.476Z,36.00
2019-06-15T03:19:12.479Z,36.00
2019-06-15T03:20:12.470Z,40.00
2019-06-15T03:21:12.442Z,44.00
2019-06-15T03:22:17.500Z,48.00
2019-06-15T03:23:12.424Z,48.00
2019-06-15T03:24:12.410Z,56.00
2019-06-15T03:25:12.430Z,60.00
2019-06-15T03:26:12.387Z,64.00
2019-06-15T03:27:12.365Z,68.00
2019-06-15T03:28:12.358Z,68.00
2019-06-15T03:29:12.343Z,68.00
2019-06-15T03:30:12.347Z,76.00
2019-06-15T03:31:12.340Z,84.00
2019-06-15T03:32:12.315Z,96.00
2019-06-15T03:33:17.321Z,104.00
2019-06-15T03:34:12.292Z,100.00
2019-06-15T03:35:12.284Z,104.00
2019-06-15T03:36:12.286Z,108.00
2019-06-15T03:37:12.274Z,116.00
2019-06-15T03:38:12.246Z,116.00
2019-06-15T03:39:12.233Z,116.00
2019-06-15T03:40:12.242Z,116.00
2019-06-15T03:41:12.238Z,120.00
2019-06-15T03:42:12.226Z,124.00
2019-06-15T03:43:12.192Z,128.00
2019-06-15T03:44:17.198Z,136.00
2019-06-15T03:45:12.167Z,140.00
2019-06-15T03:46:12.190Z,144.00
2019-06-15T03:47:12.154Z,148.00
2019-06-15T03:48:12.144Z,148.00
2019-06-15T03:49:12.126Z,156.00
2019-06-15T03:50:12.118Z,168.00
2019-06-15T03:51:12.104Z,172.00
2019-06-15T03:52:12.088Z,172.00
2019-06-15T03:53:12.096Z,180.00
2019-06-15T03:54:12.086Z,196.00
2019-06-15T03:55:17.096Z,200.00
2019-06-15T03:56:21.096Z,204.00
2019-06-15T03:57:13.049Z,216.00
2019-06-15T03:58:12.026Z,220.00
2019-06-15T03:59:12.020Z,228.00
2019-06-15T04:00:12.020Z,232.00
2019-06-15T04:01:11.996Z,244.00
2019-06-15T04:02:11.981Z,248.00
2019-06-15T04:03:11.979Z,260.00
2019-06-15T04:04:11.983Z,272.00
2019-06-15T04:05:11.955Z,272.00
2019-06-15T04:06:16.977Z,280.00
2019-06-15T04:07:11.923Z,288.00
2019-06-15T04:08:11.912Z,296.00
2019-06-15T04:09:11.904Z,308.00
2019-06-15T04:10:11.895Z,316.00
2019-06-15T04:11:11.878Z,332.00
2019-06-15T04:12:11.887Z,340.00
2019-06-15T04:13:11.856Z,348.00
2019-06-15T04:14:11.850Z,356.00
2019-06-15T04:15:11.848Z,364.00
2019-06-15T04:16:11.830Z,376.00
2019-06-15T04:17:16.856Z,384.00
2019-06-15T04:18:11.807Z,396.00
2019-06-15T04:19:11.796Z,404.00
2019-06-15T04:20:11.780Z,420.00
2019-06-15T04:21:11.770Z,428.00
2019-06-15T04:22:11.776Z,452.00
2019-06-15T04:23:11.758Z,484.00
2019-06-15T04:24:11.733Z,520.00
2019-06-15T04:25:11.727Z,560.00
2019-06-15T04:26:11.713Z,616.00
2019-06-15T04:27:11.719Z,692.00
2019-06-15T04:28:16.724Z,752.00
2019-06-15T04:29:11.694Z,864.00
2019-06-15T04:30:11.666Z,928.00
2019-06-15T04:31:11.658Z,1016.00
2019-06-15T04:32:11.661Z,1052.00
2019-06-15T04:33:11.640Z,1140.00
2019-06-15T04:34:11.623Z,1176.00
2019-06-15T04:35:11.610Z,1188.00
2019-06-15T04:36:11.600Z,1176.00
2019-06-15T04:37:11.599Z,1148.00
2019-06-15T04:38:11.577Z,1088.00
2019-06-15T04:39:16.602Z,1036.00
2019-06-15T04:40:11.563Z,1020.00
2019-06-15T04:41:11.548Z,1012.00
2019-06-15T04:42:11.536Z,1044.00
2019-06-15T04:43:11.527Z,1060.00
2019-06-15T04:44:11.510Z,1064.00
2019-06-15T04:45:11.500Z,1044.00
2019-06-15T04:46:11.502Z,1052.00
2019-06-15T04:47:11.487Z,1068.00
2019-06-15T04:48:11.470Z,1100.00
2019-06-15T04:49:11.460Z,1128.00
2019-06-15T04:50:16.475Z,1156.00
2019-06-15T04:51:11.441Z,1164.00
2019-06-15T04:52:11.438Z,1164.00
2019-06-15T04:53:11.418Z,1120.00
2019-06-15T04:54:11.411Z,1060.00
2019-06-15T04:55:11.398Z,1008.00
2019-06-15T04:56:11.386Z,944.00
2019-06-15T04:57:11.377Z,900.00
2019-06-15T04:58:11.374Z,896.00
2019-06-15T04:59:11.350Z,896.00
2019-06-15T05:00:11.393Z,892.00
2019-06-15T05:01:16.345Z,932.00
2019-06-15T05:02:11.315Z,968.00
2019-06-15T05:03:11.307Z,984.00
2019-06-15T05:04:11.293Z,1004.00
2019-06-15T05:05:11.286Z,1036.00
2019-06-15T05:06:11.269Z,1108.00
2019-06-15T05:07:11.276Z,1160.00
2019-06-15T05:08:11.262Z,1244.00
2019-06-15T05:09:11.254Z,1304.00
2019-06-15T05:10:11.230Z,1276.00
2019-06-15T05:11:11.216Z,1332.00
2019-06-15T05:12:16.241Z,1332.00
2019-06-15T05:13:11.199Z,1364.00
2019-06-15T05:14:11.182Z,1496.00
2019-06-15T05:15:11.193Z,1520.00
2019-06-15T05:16:11.167Z,1536.00
2019-06-15T05:17:11.153Z,1548.00
2019-06-15T05:18:11.145Z,1548.00
2019-06-15T05:19:11.137Z,1460.00
2019-06-15T05:20:11.121Z,1460.00
2019-06-15T05:21:11.113Z,1408.00
2019-06-15T05:22:11.093Z,1344.00
2019-06-15T05:23:16.119Z,1288.00
2019-06-15T05:24:11.071Z,1244.00
2019-06-15T05:25:11.061Z,1248.00
2019-06-15T05:26:11.063Z,1252.00
2019-06-15T05:27:11.052Z,1292.00
2019-06-15T05:28:11.034Z,1276.00
2019-06-15T05:29:11.022Z,1284.00
2019-06-15T05:30:11.013Z,1348.00
2019-06-15T05:31:11.001Z,1416.00
2019-06-15T05:32:10.988Z,1496.00
2019-06-15T05:33:10.992Z,1416.00
2019-06-15T05:34:15.994Z,1344.00
2019-06-15T05:35:10.975Z,1272.00
2019-06-15T05:36:10.952Z,1348.00
2019-06-15T05:37:10.937Z,1596.00
2019-06-15T05:38:10.940Z,1820.00
2019-06-15T05:39:10.937Z,1832.00
2019-06-15T05:40:10.906Z,2192.00
2019-06-15T05:41:10.883Z,2036.00
2019-06-15T05:42:10.873Z,1968.00
2019-06-15T05:43:10.877Z,1624.00
2019-06-15T05:44:10.856Z,1672.00
2019-06-15T05:45:15.862Z,1396.00
2019-06-15T05:46:10.829Z,1900.00
2019-06-15T05:47:10.823Z,1804.00
2019-06-15T05:48:10.830Z,2196.00
2019-06-15T05:49:10.797Z,1028.00
2019-06-15T05:50:10.800Z,1608.00
2019-06-15T05:51:10.805Z,760.00
2019-06-15T05:52:10.803Z,668.00
2019-06-15T05:53:10.798Z,684.00
2019-06-15T05:54:10.741Z,672.00
2019-06-15T05:55:10.730Z,680.00
2019-06-15T05:56:15.749Z,704.00
2019-06-15T05:57:21.200Z,708.00
2019-06-15T05:58:11.698Z,784.00
2019-06-15T05:59:10.683Z,836.00
2019-06-15T06:00:10.677Z,840.00
2019-06-15T06:01:10.665Z,840.00
2019-06-15T06:02:10.671Z,1192.00
2019-06-15T06:03:10.648Z,1188.00
2019-06-15T06:04:10.638Z,1244.00
2019-06-15T06:05:10.618Z,1252.00
2019-06-15T06:06:10.607Z,1156.00
2019-06-15T06:07:15.629Z,1080.00
2019-06-15T06:08:10.627Z,1116.00
2019-06-15T06:09:10.574Z,996.00
2019-06-15T06:10:11.013Z,1172.00
2019-06-15T06:11:10.549Z,1272.00
2019-06-15T06:12:10.540Z,1356.00
2019-06-15T06:13:10.545Z,1464.00
2019-06-15T06:14:10.525Z,1520.00
2019-06-15T06:15:10.526Z,1528.00
2019-06-15T06:16:10.499Z,1456.00
2019-06-15T06:17:10.488Z,1188.00
2019-06-15T06:18:15.497Z,1332.00
2019-06-15T06:19:10.476Z,1392.00
2019-06-15T06:20:10.501Z,1364.00
2019-06-15T06:21:10.437Z,1324.00
2019-06-15T06:22:10.432Z,1360.00
2019-06-15T06:23:10.416Z,1440.00
2019-06-15T06:24:10.433Z,1520.00
2019-06-15T06:25:10.405Z,1548.00
2019-06-15T06:26:10.419Z,1664.00
2019-06-15T06:27:10.372Z,1828.00
2019-06-15T06:28:10.370Z,2200.00
2019-06-15T06:29:15.393Z,2324.00
2019-06-15T06:30:10.350Z,2752.00
2019-06-15T06:31:10.356Z,2968.00
2019-06-15T06:32:10.317Z,3348.00
2019-06-15T06:33:10.303Z,3908.00
2019-06-15T06:34:10.303Z,4548.00
2019-06-15T06:35:10.286Z,4708.00
2019-06-15T06:36:10.272Z,4608.00
2019-06-15T06:37:10.297Z,4628.00
2019-06-15T06:38:10.253Z,5944.00
2019-06-15T06:39:10.262Z,6392.00
2019-06-15T06:40:15.255Z,6660.00
2019-06-15T06:41:13.380Z,5884.00
2019-06-15T06:42:10.210Z,5736.00
2019-06-15T06:43:10.252Z,6092.00
2019-06-15T06:44:10.186Z,5508.00
2019-06-15T06:45:10.173Z,4004.00
2019-06-15T06:46:10.167Z,4468.00
2019-06-15T06:47:10.154Z,5120.00
2019-06-15T06:48:10.147Z,3780.00
2019-06-15T06:49:10.128Z,2920.00
2019-06-15T06:50:10.117Z,2740.00
2019-06-15T06:51:15.135Z,2724.00
2019-06-15T06:52:10.096Z,3056.00
2019-06-15T06:53:10.093Z,2172.00
2019-06-15T06:54:10.075Z,2172.00
2019-06-15T06:55:10.061Z,2740.00
2019-06-15T06:56:10.055Z,2064.00
2019-06-15T06:57:10.061Z,2084.00
2019-06-15T06:58:10.038Z,1652.00
2019-06-15T06:59:10.034Z,1996.00
2019-06-15T07:00:10.015Z,2820.00
2019-06-15T07:01:10.646Z,2776.00
2019-06-15T07:02:15.011Z,2072.00
2019-06-15T07:03:09.989Z,1876.00
2019-06-15T07:04:09.975Z,1732.00
2019-06-15T07:05:09.953Z,2104.00
2019-06-15T07:06:09.938Z,1776.00
2019-06-15T07:07:09.930Z,1700.00
2019-06-15T07:08:09.923Z,1608.00
2019-06-15T07:09:09.925Z,1664.00
2019-06-15T07:10:09.932Z,1676.00
2019-06-15T07:11:09.885Z,1692.00
2019-06-15T07:12:09.872Z,2032.00
2019-06-15T07:13:14.894Z,2456.00
2019-06-15T07:14:09.857Z,2644.00
2019-06-15T07:15:09.849Z,2656.00
2019-06-15T07:16:09.832Z,3152.00
2019-06-15T07:17:09.822Z,3844.00
2019-06-15T07:18:09.808Z,2800.00
2019-06-15T07:19:09.808Z,2780.00
2019-06-15T07:20:09.803Z,3496.00
2019-06-15T07:21:09.780Z,4404.00
2019-06-15T07:22:09.772Z,3960.00
2019-06-15T07:23:09.770Z,5132.00
2019-06-15T07:24:14.776Z,3252.00
2019-06-15T07:25:09.745Z,2428.00
2019-06-15T07:26:09.803Z,1804.00
2019-06-15T07:27:09.708Z,1976.00
2019-06-15T07:28:09.696Z,3056.00
2019-06-15T07:29:09.684Z,1696.00
2019-06-15T07:30:10.482Z,1944.00
2019-06-15T07:31:09.668Z,2672.00
2019-06-15T07:32:09.654Z,2536.00
2019-06-15T07:33:09.661Z,3556.00
2019-06-15T07:34:09.631Z,3196.00
2019-06-15T07:35:14.647Z,2212.00
2019-06-15T07:36:09.657Z,1908.00
2019-06-15T07:37:09.598Z,1932.00
2019-06-15T07:38:09.585Z,2184.00
2019-06-15T07:39:09.585Z,3248.00
2019-06-15T07:40:09.569Z,4536.00
2019-06-15T07:41:09.554Z,3884.00
2019-06-15T07:42:09.540Z,2896.00
2019-06-15T07:43:09.547Z,2220.00
2019-06-15T07:44:09.520Z,2860.00
2019-06-15T07:45:09.522Z,2800.00
2019-06-15T07:46:14.520Z,4368.00
2019-06-15T07:47:09.593Z,4252.00
2019-06-15T07:48:09.486Z,2916.00
2019-06-15T07:49:09.495Z,3344.00
2019-06-15T07:50:09.678Z,3520.00
2019-06-15T07:51:09.452Z,4036.00
2019-06-15T07:52:09.434Z,5244.00
2019-06-15T07:53:09.424Z,2880.00
2019-06-15T07:54:09.437Z,3536.00
2019-06-15T07:55:09.405Z,3852.00
2019-06-15T07:56:09.389Z,3044.00
2019-06-15T07:57:15.161Z,2880.00
2019-06-15T07:58:23.580Z,3824.00
2019-06-15T07:59:10.380Z,6100.00
2019-06-15T08:00:09.374Z,3684.00
2019-06-15T08:01:09.333Z,5196.00
2019-06-15T08:02:09.330Z,4136.00
2019-06-15T08:03:09.331Z,4452.00
2019-06-15T08:04:09.302Z,4284.00
2019-06-15T08:05:09.299Z,3924.00
2019-06-15T08:06:09.283Z,4184.00
2019-06-15T08:07:09.290Z,4484.00
2019-06-15T08:08:14.285Z,3520.00
2019-06-15T08:09:09.247Z,4332.00
2019-06-15T08:10:09.260Z,2840.00
2019-06-15T08:11:09.232Z,2144.00
2019-06-15T08:12:09.215Z,3388.00
2019-06-15T08:13:09.208Z,4700.00
2019-06-15T08:14:09.200Z,5276.00
2019-06-15T08:15:09.188Z,4052.00
2019-06-15T08:16:09.174Z,3572.00
2019-06-15T08:17:09.168Z,5476.00
2019-06-15T08:18:09.862Z,4264.00
2019-06-15T08:19:14.164Z,5652.00
2019-06-15T08:20:09.132Z,9820.00
2019-06-15T08:21:09.138Z,6540.00
2019-06-15T08:22:09.110Z,6000.00
2019-06-15T08:23:09.097Z,5360.00
2019-06-15T08:24:09.086Z,4828.00
2019-06-15T08:25:09.083Z,5840.00
2019-06-15T08:26:09.079Z,5272.00
2019-06-15T08:27:09.063Z,6388.00
2019-06-15T08:28:09.067Z,6284.00
2019-06-15T08:29:09.037Z,5312.00
2019-06-15T08:30:14.146Z,6072.00
2019-06-15T08:31:09.021Z,5612.00
2019-06-15T08:32:09.015Z,5620.00
2019-06-15T08:33:08.990Z,6328.00
2019-06-15T08:34:08.980Z,5500.00
2019-06-15T08:35:08.973Z,6164.00
2019-06-15T08:36:08.983Z,8064.00
2019-06-15T08:37:08.946Z,5464.00
2019-06-15T08:38:08.946Z,4972.00
2019-06-15T08:39:08.923Z,4856.00
2019-06-15T08:40:08.927Z,6300.00
2019-06-15T08:41:13.931Z,6840.00
2019-06-15T08:42:08.895Z,5544.00
2019-06-15T08:43:08.880Z,4652.00
2019-06-15T08:44:08.875Z,5768.00
2019-06-15T08:45:08.869Z,6628.00
2019-06-15T08:46:08.846Z,7368.00
2019-06-15T08:47:08.847Z,8260.00
2019-06-15T08:48:08.823Z,10292.00
2019-06-15T08:49:08.813Z,6244.00
2019-06-15T08:50:08.834Z,4940.00
2019-06-15T08:51:08.800Z,7352.00
2019-06-15T08:52:13.821Z,7344.00
2019-06-15T08:53:08.763Z,6768.00
2019-06-15T08:54:08.757Z,5484.00
2019-06-15T08:55:08.755Z,7096.00
2019-06-15T08:56:08.761Z,5556.00
2019-06-15T08:57:08.729Z,5996.00
2019-06-15T08:58:08.717Z,4216.00
2019-06-15T08:59:08.721Z,3328.00
2019-06-15T09:00:08.685Z,3864.00
2019-06-15T09:01:08.692Z,5724.00
2019-06-15T09:02:08.701Z,6236.00
2019-06-15T09:03:13.676Z,7132.00
2019-06-15T09:04:08.675Z,6120.00
2019-06-15T09:05:08.633Z,6288.00
2019-06-15T09:06:08.625Z,6856.00
2019-06-15T09:07:08.664Z,7120.00
2019-06-15T09:08:08.613Z,6048.00
2019-06-15T09:09:08.585Z,7300.00
2019-06-15T09:10:08.599Z,5792.00
2019-06-15T09:11:08.609Z,4548.00
2019-06-15T09:12:08.568Z,4048.00
2019-06-15T09:13:08.550Z,3512.00
2019-06-15T09:14:13.591Z,2884.00
2019-06-15T09:15:08.549Z,2852.00
2019-06-15T09:16:08.510Z,3564.00
2019-06-15T09:17:08.495Z,2836.00
2019-06-15T09:18:08.493Z,2020.00
2019-06-15T09:19:08.472Z,3000.00
2019-06-15T09:20:08.462Z,5028.00
2019-06-15T09:21:08.471Z,7132.00
2019-06-15T09:22:08.445Z,7988.00
2019-06-15T09:23:08.432Z,11800.00
2019-06-15T09:24:08.434Z,12192.00
2019-06-15T09:25:13.437Z,9168.00
2019-06-15T09:26:08.396Z,9208.00
2019-06-15T09:27:08.388Z,9288.00
2019-06-15T09:28:08.409Z,8384.00
2019-06-15T09:29:11.622Z,7768.00
2019-06-15T09:30:08.352Z,6688.00
2019-06-15T09:31:08.347Z,7216.00
2019-06-15T09:32:08.329Z,6256.00
2019-06-15T09:33:08.315Z,7504.00
2019-06-15T09:34:18.343Z,8428.00
2019-06-15T09:35:09.325Z,7528.00
2019-06-15T09:36:13.312Z,6532.00
2019-06-15T09:37:08.273Z,5588.00
2019-06-15T09:38:08.261Z,4408.00
2019-06-15T09:39:08.258Z,5692.00
2019-06-15T09:40:08.239Z,6044.00
2019-06-15T09:41:08.244Z,6700.00
2019-06-15T09:42:08.236Z,6148.00
2019-06-15T09:43:08.201Z,5080.00
2019-06-15T09:44:08.404Z,5680.00
2019-06-15T09:45:08.186Z,5560.00
2019-06-15T09:46:08.191Z,6196.00
2019-06-15T09:47:13.182Z,6648.00
2019-06-15T09:48:08.164Z,7412.00
2019-06-15T09:49:08.138Z,8684.00
2019-06-15T09:50:08.129Z,10648.00
2019-06-15T09:51:08.112Z,11248.00
2019-06-15T09:52:08.132Z,10320.00
2019-06-15T09:53:08.098Z,12140.00
2019-06-15T09:54:08.082Z,6728.00
2019-06-15T09:55:08.068Z,5808.00
2019-06-15T09:56:08.057Z,4964.00
2019-06-15T09:57:08.048Z,6464.00
2019-06-15T09:58:13.176Z,4628.00
2019-06-15T09:59:08.027Z,7268.00
2019-06-15T10:00:08.026Z,9520.00
2019-06-15T10:01:08.012Z,6684.00
2019-06-15T10:02:08.019Z,7936.00
2019-06-15T10:03:07.993Z,6784.00
2019-06-15T10:04:07.967Z,7508.00
2019-06-15T10:05:07.957Z,10564.00
2019-06-15T10:06:11.727Z,12276.00
2019-06-15T10:07:07.954Z,11496.00
2019-06-15T10:08:07.961Z,12028.00
2019-06-15T10:09:12.941Z,10624.00
2019-06-15T10:10:07.901Z,6888.00
2019-06-15T10:11:07.890Z,7408.00
2019-06-15T10:12:07.909Z,10092.00
2019-06-15T10:13:07.872Z,8692.00
2019-06-15T10:14:07.862Z,8720.00
2019-06-15T10:15:07.880Z,7764.00
2019-06-15T10:16:07.858Z,11712.00
2019-06-15T10:17:07.821Z,11316.00
2019-06-15T10:18:07.814Z,7584.00
2019-06-15T10:19:07.858Z,6684.00
2019-06-15T10:20:12.816Z,6944.00
2019-06-15T10:21:07.846Z,5004.00
2019-06-15T10:22:07.785Z,3504.00
2019-06-15T10:23:07.760Z,3340.00
2019-06-15T10:24:07.751Z,4296.00
2019-06-15T10:25:07.734Z,3960.00
2019-06-15T10:26:07.761Z,2400.00
2019-06-15T10:27:07.725Z,2616.00
2019-06-15T10:28:07.712Z,3436.00
2019-06-15T10:29:07.700Z,4292.00
2019-06-15T10:30:07.683Z,3148.00
2019-06-15T10:31:12.724Z,3692.00
2019-06-15T10:32:07.678Z,4992.00
2019-06-15T10:33:07.665Z,6108.00
2019-06-15T10:34:07.640Z,5712.00
2019-06-15T10:35:07.654Z,5400.00
2019-06-15T10:36:09.632Z,4864.00
2019-06-15T10:37:07.604Z,4776.00
2019-06-15T10:38:07.607Z,4676.00
2019-06-15T10:39:07.618Z,5268.00
2019-06-15T10:40:07.577Z,8292.00
2019-06-15T10:41:07.566Z,15776.00
2019-06-15T10:42:12.580Z,10760.00
2019-06-15T10:43:07.550Z,39232.00
2019-06-15T10:44:07.553Z,36224.00
2019-06-15T10:45:07.515Z,10700.00
2019-06-15T10:46:07.504Z,16288.00
2019-06-15T10:47:07.491Z,10192.00
2019-06-15T10:48:07.531Z,11564.00
2019-06-15T10:49:07.502Z,10236.00
2019-06-15T10:50:07.471Z,5948.00
2019-06-15T10:51:07.452Z,6824.00
2019-06-15T10:52:07.439Z,8124.00
2019-06-15T10:53:12.474Z,6880.00
2019-06-15T10:54:07.423Z,10524.00
2019-06-15T10:55:07.488Z,8700.00
2019-06-15T10:56:07.420Z,4516.00
2019-06-15T10:57:07.382Z,6328.00
2019-06-15T10:58:07.379Z,4968.00
2019-06-15T10:59:07.364Z,3988.00
2019-06-15T11:00:07.354Z,3396.00
2019-06-15T11:01:07.343Z,28096.00
2019-06-15T11:02:07.345Z,11344.00
2019-06-15T11:03:07.315Z,13280.00
2019-06-15T11:04:12.331Z,7552.00
2019-06-15T11:05:07.328Z,50912.00
2019-06-15T11:06:07.304Z,6448.00
2019-06-15T11:07:07.277Z,25600.00
2019-06-15T11:08:07.265Z,27552.00
2019-06-15T11:09:07.254Z,8212.00
2019-06-15T11:10:07.276Z,8336.00
2019-06-15T11:11:07.250Z,6804.00
2019-06-15T11:12:07.233Z,4976.00
2019-06-15T11:13:07.241Z,3568.00
2019-06-15T11:14:07.247Z,3064.00
2019-06-15T11:15:12.209Z,2544.00
2019-06-15T11:16:07.246Z,3468.00
2019-06-15T11:17:07.701Z,4220.00
2019-06-15T11:18:07.708Z,4480.00
2019-06-15T11:19:07.237Z,5548.00
2019-06-15T11:20:07.181Z,6824.00
2019-06-15T11:21:07.186Z,8344.00
2019-06-15T11:22:07.245Z,18880.00
2019-06-15T11:23:07.103Z,42816.00
2019-06-15T11:24:07.121Z,89408.00
2019-06-15T11:25:07.156Z,60160.00
2019-06-15T11:26:12.088Z,64672.00
2019-06-15T11:27:07.055Z,64320.00
2019-06-15T11:28:07.061Z,86816.00
2019-06-15T11:29:07.037Z,60544.00
2019-06-15T11:30:13.764Z,85984.00
2019-06-15T11:31:08.010Z,102368.00
2019-06-15T11:32:07.005Z,109184.00
2019-06-15T11:33:06.992Z,61312.00
2019-06-15T11:34:07.052Z,74720.00
2019-06-15T11:35:07.007Z,82304.00
2019-06-15T11:36:07.060Z,99424.00
2019-06-15T11:37:11.990Z,103168.00
2019-06-15T11:38:06.960Z,92032.00
2019-06-15T11:39:06.955Z,91648.00
2019-06-15T11:40:06.918Z,93088.00
2019-06-15T11:41:07.716Z,76224.00
2019-06-15T11:42:07.758Z,81888.00
2019-06-15T11:43:07.708Z,73568.00
2019-06-15T11:44:06.924Z,81056.00
2019-06-15T11:45:06.955Z,64640.00
2019-06-15T11:46:07.722Z,54336.00
2019-06-15T11:47:07.709Z,41952.00
2019-06-15T11:48:06.943Z,48896.00
2019-06-15T11:49:06.899Z,52032.00
2019-06-15T11:50:12.221Z,72544.00
2019-06-15T11:51:06.824Z,62944.00
2019-06-15T11:52:06.933Z,63264.00
2019-06-15T11:53:06.801Z,61120.00
2019-06-15T11:54:06.787Z,58912.00
2019-06-15T11:55:06.759Z,62720.00
2019-06-15T11:56:06.754Z,76864.00
2019-06-15T11:57:06.744Z,53792.00
2019-06-15T11:58:06.730Z,67904.00
2019-06-15T11:59:06.719Z,60000.00
2019-06-15T12:00:06.719Z,66784.00
2019-06-15T12:01:06.700Z,63424.00
2019-06-15T12:02:06.694Z,50048.00
2019-06-15T12:03:11.701Z,48384.00
2019-06-15T12:04:06.716Z,24288.00
2019-06-15T12:05:06.686Z,25792.00
2019-06-15T12:06:06.653Z,27488.00
2019-06-15T12:07:06.641Z,37376.00
2019-06-15T12:08:06.627Z,34784.00
2019-06-15T12:09:06.624Z,22336.00
2019-06-15T12:10:06.633Z,15384.00
2019-06-15T12:11:06.621Z,15392.00
2019-06-15T12:12:06.593Z,9548.00
2019-06-15T12:13:06.572Z,11028.00
2019-06-15T12:14:06.560Z,10732.00
2019-06-15T12:15:06.566Z,9084.00
2019-06-15T12:16:11.591Z,45696.00
2019-06-15T12:17:06.563Z,100960.00
2019-06-15T12:18:06.558Z,100160.00
2019-06-15T12:19:06.507Z,98208.00
2019-06-15T12:20:06.506Z,52672.00
2019-06-15T12:21:06.509Z,30368.00
2019-06-15T12:22:06.482Z,10668.00
2019-06-15T12:23:06.472Z,6840.00